sensor_id;sensor_type;location;lat;lon;timestamp;P1;durP1;ratioP1;P2;durP2;ratioP2
64419;SDS011;50745;48.170;14.516;2022-07-23T00:01:47;13.85;;;12.43;;
64419;SDS011;50745;48.170;14.516;2022-07-23T00:11:48;14.57;;;13.18;;
64419;SDS011;50745;48.170;14.516;2022-07-23T00:21:49;13.93;;;12.63;;
64419;SDS011;50745;48.170;14.516;2022-07-23T00:31:50;14.30;;;12.80;;
64419;SDS011;50745;48.170;14.516;2022-07-23T00:41:52;14.55;;;13.05;;
64419;SDS011;50745;48.170;14.516;2022-07-23T00:51:53;14.43;;;12.57;;
64419;SDS011;50745;48.170;14.516;2022-07-23T01:01:55;14.52;;;13.10;;
64419;SDS011;50745;48.170;14.516;2022-07-23T01:11:56;15.75;;;14.25;;
64419;SDS011;50745;48.170;14.516;2022-07-23T01:21:58;14.60;;;13.20;;
64419;SDS011;50745;48.170;14.516;2022-07-23T01:32:01;15.37;;;13.33;;
64419;SDS011;50745;48.170;14.516;2022-07-23T01:42:03;14.82;;;13.32;;
64419;SDS011;50745;48.170;14.516;2022-07-23T01:52:06;15.00;;;13.60;;
64419;SDS011;50745;48.170;14.516;2022-07-23T02:02:23;14.90;;;13.50;;
64419;SDS011;50745;48.170;14.516;2022-07-23T02:12:25;15.05;;;13.55;;
64419;SDS011;50745;48.170;14.516;2022-07-23T02:22:26;14.98;;;13.43;;
64419;SDS011;50745;48.170;14.516;2022-07-23T02:32:27;14.93;;;13.52;;
64419;SDS011;50745;48.170;14.516;2022-07-23T02:42:29;16.35;;;14.65;;
64419;SDS011;50745;48.170;14.516;2022-07-23T02:52:30;15.23;;;13.73;;
64419;SDS011;50745;48.170;14.516;2022-07-23T03:02:32;15.88;;;14.38;;
64419;SDS011;50745;48.170;14.516;2022-07-23T03:12:33;15.00;;;13.50;;
64419;SDS011;50745;48.170;14.516;2022-07-23T03:22:34;15.05;;;13.43;;
64419;SDS011;50745;48.170;14.516;2022-07-23T03:42:40;14.63;;;13.27;;
64419;SDS011;50745;48.170;14.516;2022-07-23T03:52:43;14.00;;;12.60;;
64419;SDS011;50745;48.170;14.516;2022-07-23T04:02:46;13.55;;;12.23;;
64419;SDS011;50745;48.170;14.516;2022-07-23T04:12:48;12.55;;;11.30;;
64419;SDS011;50745;48.170;14.516;2022-07-23T04:22:49;11.75;;;10.65;;
64419;SDS011;50745;48.170;14.516;2022-07-23T04:32:50;10.70;;;9.60;;
64419;SDS011;50745;48.170;14.516;2022-07-23T04:42:57;8.85;;;8.05;;
64419;SDS011;50745;48.170;14.516;2022-07-23T04:52:59;8.07;;;7.28;;
64419;SDS011;50745;48.170;14.516;2022-07-23T05:03:00;7.00;;;6.30;;
64419;SDS011;50745;48.170;14.516;2022-07-23T05:13:02;7.70;;;5.93;;
64419;SDS011;50745;48.170;14.516;2022-07-23T05:23:03;6.57;;;5.65;;
64419;SDS011;50745;48.170;14.516;2022-07-23T05:33:05;6.43;;;5.70;;
64419;SDS011;50745;48.170;14.516;2022-07-23T05:43:09;7.18;;;5.80;;
64419;SDS011;50745;48.170;14.516;2022-07-23T05:53:11;7.63;;;5.30;;
64419;SDS011;50745;48.170;14.516;2022-07-23T06:03:32;7.68;;;5.70;;
64419;SDS011;50745;48.170;14.516;2022-07-23T06:13:34;6.78;;;5.43;;
64419;SDS011;50745;48.170;14.516;2022-07-23T06:23:35;7.20;;;5.60;;
64419;SDS011;50745;48.170;14.516;2022-07-23T06:33:36;6.15;;;5.55;;
64419;SDS011;50745;48.170;14.516;2022-07-23T06:43:38;7.80;;;5.60;;
64419;SDS011;50745;48.170;14.516;2022-07-23T06:53:42;7.80;;;5.47;;
64419;SDS011;50745;48.170;14.516;2022-07-23T07:03:44;6.88;;;5.22;;
64419;SDS011;50745;48.170;14.516;2022-07-23T07:13:45;6.13;;;5.28;;
64419;SDS011;50745;48.170;14.516;2022-07-23T07:23:46;6.55;;;5.03;;
64419;SDS011;50745;48.170;14.516;2022-07-23T07:33:47;8.82;;;5.00;;
64419;SDS011;50745;48.170;14.516;2022-07-23T07:43:49;7.68;;;5.60;;
64419;SDS011;50745;48.170;14.516;2022-07-23T07:53:51;7.90;;;5.28;;
64419;SDS011;50745;48.170;14.516;2022-07-23T08:03:52;6.68;;;5.18;;
64419;SDS011;50745;48.170;14.516;2022-07-23T08:13:53;5.35;;;4.65;;
64419;SDS011;50745;48.170;14.516;2022-07-23T08:23:54;7.95;;;5.10;;
64419;SDS011;50745;48.170;14.516;2022-07-23T08:33:55;6.47;;;5.28;;
64419;SDS011;50745;48.170;14.516;2022-07-23T08:43:58;6.38;;;5.30;;
64419;SDS011;50745;48.170;14.516;2022-07-23T08:54:01;6.82;;;5.32;;
64419;SDS011;50745;48.170;14.516;2022-07-23T09:04:03;6.90;;;5.15;;
64419;SDS011;50745;48.170;14.516;2022-07-23T09:14:04;5.93;;;5.28;;
64419;SDS011;50745;48.170;14.516;2022-07-23T09:34:07;6.40;;;5.13;;
64419;SDS011;50745;48.170;14.516;2022-07-23T09:44:14;6.87;;;5.90;;
64419;SDS011;50745;48.170;14.516;2022-07-23T09:54:28;6.00;;;5.40;;
64419;SDS011;50745;48.170;14.516;2022-07-23T10:04:32;6.55;;;5.63;;
64419;SDS011;50745;48.170;14.516;2022-07-23T10:14:51;8.65;;;5.75;;
64419;SDS011;50745;48.170;14.516;2022-07-23T10:45:31;6.90;;;5.85;;
64419;SDS011;50745;48.170;14.516;2022-07-23T11:05:44;7.22;;;5.53;;
64419;SDS011;50745;48.170;14.516;2022-07-23T11:26:04;5.93;;;5.22;;
64419;SDS011;50745;48.170;14.516;2022-07-23T11:36:05;6.13;;;5.40;;
64419;SDS011;50745;48.170;14.516;2022-07-23T11:46:09;5.78;;;5.00;;
64419;SDS011;50745;48.170;14.516;2022-07-23T11:56:14;6.43;;;5.20;;
64419;SDS011;50745;48.170;14.516;2022-07-23T12:06:15;6.82;;;5.15;;
64419;SDS011;50745;48.170;14.516;2022-07-23T12:16:18;6.75;;;5.03;;
64419;SDS011;50745;48.170;14.516;2022-07-23T12:26:19;6.13;;;5.20;;
64419;SDS011;50745;48.170;14.516;2022-07-23T12:36:20;6.55;;;4.95;;
64419;SDS011;50745;48.170;14.516;2022-07-23T12:46:37;6.45;;;5.35;;
64419;SDS011;50745;48.170;14.516;2022-07-23T12:56:40;6.22;;;5.63;;
64419;SDS011;50745;48.170;14.516;2022-07-23T13:06:42;6.40;;;5.27;;
64419;SDS011;50745;48.170;14.516;2022-07-23T13:16:44;6.28;;;5.63;;
64419;SDS011;50745;48.170;14.516;2022-07-23T13:26:45;6.15;;;5.25;;
64419;SDS011;50745;48.170;14.516;2022-07-23T13:36:47;6.45;;;5.72;;
64419;SDS011;50745;48.170;14.516;2022-07-23T13:46:49;6.30;;;5.70;;
64419;SDS011;50745;48.170;14.516;2022-07-23T13:56:50;5.90;;;5.30;;
64419;SDS011;50745;48.170;14.516;2022-07-23T14:06:52;7.07;;;5.80;;
64419;SDS011;50745;48.170;14.516;2022-07-23T14:16:54;6.68;;;5.97;;
64419;SDS011;50745;48.170;14.516;2022-07-23T14:26:56;6.70;;;5.75;;
64419;SDS011;50745;48.170;14.516;2022-07-23T14:36:57;7.15;;;6.00;;
64419;SDS011;50745;48.170;14.516;2022-07-23T14:46:59;6.40;;;5.63;;
64419;SDS011;50745;48.170;14.516;2022-07-23T14:57:01;6.68;;;5.97;;
64419;SDS011;50745;48.170;14.516;2022-07-23T15:07:03;6.88;;;5.93;;
64419;SDS011;50745;48.170;14.516;2022-07-23T15:17:04;6.60;;;5.90;;
64419;SDS011;50745;48.170;14.516;2022-07-23T15:27:06;6.38;;;5.78;;
64419;SDS011;50745;48.170;14.516;2022-07-23T15:37:07;6.70;;;6.00;;
64419;SDS011;50745;48.170;14.516;2022-07-23T15:47:11;6.30;;;5.70;;
64419;SDS011;50745;48.170;14.516;2022-07-23T15:57:12;6.65;;;6.00;;
64419;SDS011;50745;48.170;14.516;2022-07-23T16:07:14;6.72;;;6.03;;
64419;SDS011;50745;48.170;14.516;2022-07-23T16:17:15;6.85;;;6.15;;
64419;SDS011;50745;48.170;14.516;2022-07-23T16:27:16;6.95;;;6.25;;
64419;SDS011;50745;48.170;14.516;2022-07-23T16:37:17;7.57;;;6.57;;
64419;SDS011;50745;48.170;14.516;2022-07-23T16:47:19;6.68;;;5.97;;
64419;SDS011;50745;48.170;14.516;2022-07-23T16:57:21;6.65;;;5.68;;
64419;SDS011;50745;48.170;14.516;2022-07-23T17:07:22;6.50;;;5.80;;
64419;SDS011;50745;48.170;14.516;2022-07-23T17:17:23;6.57;;;5.78;;
64419;SDS011;50745;48.170;14.516;2022-07-23T17:27:24;7.00;;;6.07;;
64419;SDS011;50745;48.170;14.516;2022-07-23T17:37:26;6.43;;;5.63;;
64419;SDS011;50745;48.170;14.516;2022-07-23T17:47:28;6.50;;;5.90;;
64419;SDS011;50745;48.170;14.516;2022-07-23T17:57:29;7.60;;;5.68;;
64419;SDS011;50745;48.170;14.516;2022-07-23T18:07:30;7.07;;;5.55;;
64419;SDS011;50745;48.170;14.516;2022-07-23T18:17:31;7.43;;;5.70;;
64419;SDS011;50745;48.170;14.516;2022-07-23T18:27:33;7.57;;;5.32;;
64419;SDS011;50745;48.170;14.516;2022-07-23T18:37:34;8.23;;;5.68;;
64419;SDS011;50745;48.170;14.516;2022-07-23T18:47:36;7.20;;;5.80;;
64419;SDS011;50745;48.170;14.516;2022-07-23T18:57:37;6.80;;;5.40;;
64419;SDS011;50745;48.170;14.516;2022-07-23T19:07:39;7.90;;;6.53;;
64419;SDS011;50745;48.170;14.516;2022-07-23T19:17:40;7.30;;;5.82;;
64419;SDS011;50745;48.170;14.516;2022-07-23T19:27:41;6.95;;;5.65;;
64419;SDS011;50745;48.170;14.516;2022-07-23T19:37:43;7.43;;;5.70;;
64419;SDS011;50745;48.170;14.516;2022-07-23T19:47:44;7.40;;;6.00;;
64419;SDS011;50745;48.170;14.516;2022-07-23T19:57:45;7.43;;;5.38;;
64419;SDS011;50745;48.170;14.516;2022-07-23T20:07:47;8.20;;;6.15;;
64419;SDS011;50745;48.170;14.516;2022-07-23T20:17:48;7.25;;;6.10;;
64419;SDS011;50745;48.170;14.516;2022-07-23T20:27:49;6.88;;;6.13;;
64419;SDS011;50745;48.170;14.516;2022-07-23T20:37:51;6.63;;;5.93;;
64419;SDS011;50745;48.170;14.516;2022-07-23T20:47:52;7.88;;;5.82;;
64419;SDS011;50745;48.170;14.516;2022-07-23T20:57:54;8.18;;;5.75;;
64419;SDS011;50745;48.170;14.516;2022-07-23T21:07:55;7.03;;;6.32;;
64419;SDS011;50745;48.170;14.516;2022-07-23T21:17:56;6.75;;;6.03;;
64419;SDS011;50745;48.170;14.516;2022-07-23T21:27:58;9.07;;;6.60;;
64419;SDS011;50745;48.170;14.516;2022-07-23T21:37:59;7.10;;;6.15;;
64419;SDS011;50745;48.170;14.516;2022-07-23T21:48:00;9.32;;;6.43;;
64419;SDS011;50745;48.170;14.516;2022-07-23T21:58:02;7.38;;;6.35;;
64419;SDS011;50745;48.170;14.516;2022-07-23T22:08:03;7.80;;;6.22;;
64419;SDS011;50745;48.170;14.516;2022-07-23T22:18:04;7.10;;;5.90;;
64419;SDS011;50745;48.170;14.516;2022-07-23T22:28:05;6.82;;;5.88;;
64419;SDS011;50745;48.170;14.516;2022-07-23T22:38:06;7.47;;;6.45;;
64419;SDS011;50745;48.170;14.516;2022-07-23T22:48:08;7.50;;;6.03;;
64419;SDS011;50745;48.170;14.516;2022-07-23T22:58:10;7.20;;;5.85;;
64419;SDS011;50745;48.170;14.516;2022-07-23T23:08:11;6.68;;;5.93;;
64419;SDS011;50745;48.170;14.516;2022-07-23T23:18:12;6.63;;;5.93;;
64419;SDS011;50745;48.170;14.516;2022-07-23T23:28:13;9.35;;;6.47;;
64419;SDS011;50745;48.170;14.516;2022-07-23T23:38:14;6.95;;;6.25;;
64419;SDS011;50745;48.170;14.516;2022-07-23T23:48:16;6.70;;;6.00;;
64419;SDS011;50745;48.170;14.516;2022-07-23T23:58:17;6.55;;;5.75;;
